Aérodrome :
LOGIN :

S'inscrire | Disclaimer

   EN    FR    IT 

 










Légende :    VFR   VFR Marginal   IFR   IFR Intensif   IFR Très Intensif
Visi : 
Plafond : 
>= 8 km
>= 3000ft
5 à 8 km
1000 à 3000 ft
1500m à 5 km
500 à 1000 ft
800 à 1500m
200 à 500 ft
< 800m
< 200 ft
Symboles :   Orages  Brouillard  Fortes neiges  Fortes précipitations  Vent > 20 kt
SIGMETs :   Divers  Orages  Givrage  Turbulence  Onde Orograph.  Cendres Volcan.






- Altitude de l'aérodrome : 1504 ft
- Code IATA : PNA


LEPP - Noain Pamplona

DERNIER METAR :
  • 020200Z AUTO 35016KT CAVOK 05/00 Q1018

METARs EXPIRÉS :
  • 020130Z AUTO 35014KT 310V020 CAVOK 06/01 Q1018
  • 020100Z AUTO 32010KT 9999 FEW037 06/02 Q1018
  • 020030Z AUTO 34014KT 9999 FEW042 07/02 Q1019
  • 020000Z AUTO 35014KT 9999 SCT038 BKN045 07/02 Q1019
  • 012330Z AUTO 33011KT 310V010 9999 SCT029 BKN038 07/04 Q1019

TAF TAF LEPP
Valide du 01 à 21h jusqu'au 02 à 21h UTC


012000Z 0121/0221 33009KT 9999 BKN020 TX07/0214Z TN01/0208Z
PROB40
TEMPO 0121/0204 3000 -RA BKN010
TEMPO 0210/0216 35018G30KT
PROB30
TEMPO 0218/0221 BKN014



MET'MAP, la Météo Aéronautique d'un coup d'oeil ! - Copyright ORBIFLY Décembre 2007 - Disclaimer

ORBIFLY MET'MAP TEAM :

Programmation & Développement : Alexandra Zaïnal
Sur une idée originale de : Baudouin d'Aumeries
Assistance à la programmation : Marc-Olivier Méhu
Soutien technique & logistique : Manuel Goepfert

Contact : metmap@orbifly.com




SOURCES & CREDITS :

   NOAA